地図

経路データ

SID SEASON NUMBER BASIN SUBBASIN NAME ISO_TIME NATURE LAT LON WMO_WIND WMO_PRES WMO_AGENCY TRACK_TYPE DIST2LAND LANDFALL IFLAG USA_AGENCY USA_ATCF_ID USA_LAT USA_LON USA_RECORD USA_STATUS USA_WIND USA_PRES USA_SSHS USA_R34_NE USA_R34_SE USA_R34_SW USA_R34_NW USA_R50_NE USA_R50_SE USA_R50_SW USA_R50_NW USA_R64_NE USA_R64_SE USA_R64_SW USA_R64_NW USA_POCI USA_ROCI USA_RMW USA_EYE TOKYO_LAT TOKYO_LON TOKYO_GRADE TOKYO_WIND TOKYO_PRES TOKYO_R50_DIR TOKYO_R50_LONG TOKYO_R50_SHORT TOKYO_R30_DIR TOKYO_R30_LONG TOKYO_R30_SHORT TOKYO_LAND CMA_LAT CMA_LON CMA_CAT CMA_WIND CMA_PRES HKO_LAT HKO_LON HKO_CAT HKO_WIND HKO_PRES NEWDELHI_LAT NEWDELHI_LON NEWDELHI_GRADE NEWDELHI_WIND NEWDELHI_PRES NEWDELHI_CI NEWDELHI_DP NEWDELHI_POCI REUNION_LAT REUNION_LON REUNION_TYPE REUNION_WIND REUNION_PRES REUNION_TNUM REUNION_CI REUNION_RMW REUNION_R34_NE REUNION_R34_SE REUNION_R34_SW REUNION_R34_NW REUNION_R50_NE REUNION_R50_SE REUNION_R50_SW REUNION_R50_NW REUNION_R64_NE REUNION_R64_SE REUNION_R64_SW REUNION_R64_NW BOM_LAT BOM_LON BOM_TYPE BOM_WIND BOM_PRES BOM_TNUM BOM_CI BOM_RMW BOM_R34_NE BOM_R34_SE BOM_R34_SW BOM_R34_NW BOM_R50_NE BOM_R50_SE BOM_R50_SW BOM_R50_NW BOM_R64_NE BOM_R64_SE BOM_R64_SW BOM_R64_NW BOM_ROCI BOM_POCI BOM_EYE BOM_POS_METHOD BOM_PRES_METHOD NADI_LAT NADI_LON NADI_CAT NADI_WIND NADI_PRES WELLINGTON_LAT WELLINGTON_LON WELLINGTON_WIND WELLINGTON_PRES DS824_LAT DS824_LON DS824_STAGE DS824_WIND DS824_PRES TD9636_LAT TD9636_LON TD9636_STAGE TD9636_WIND TD9636_PRES TD9635_LAT TD9635_LON TD9635_WIND TD9635_PRES TD9635_ROCI NEUMANN_LAT NEUMANN_LON NEUMANN_CLASS NEUMANN_WIND NEUMANN_PRES MLC_LAT MLC_LON MLC_CLASS MLC_WIND MLC_PRES USA_GUST BOM_GUST BOM_GUST_PER REUNION_GUST REUNION_GUST_PER USA_SEAHGT USA_SEARAD_NE USA_SEARAD_SE USA_SEARAD_SW USA_SEARAD_NW STORM_SPEED STORM_DIR
1910247N21126 1910 36 WP MM NOT_NAMED 1910-09-03 16:00:00 NR 20.7000 126.200 main 482 480 __________O___ -1 20.7000 126.200 7 7 339
1910247N21126 1910 36 WP MM NOT_NAMED 1910-09-03 18:00:00 NR 20.9124 126.113 main 486 486 __________P___ -1 20.9124 126.113 7 7 339
1910247N21126 1910 36 WP MM NOT_NAMED 1910-09-03 21:00:00 NR 21.2326 125.983 main 497 492 __________P___ -1 21.2326 125.983 7 7 340
1910247N21126 1910 36 WP MM NOT_NAMED 1910-09-04 00:00:00 NR 21.5569 125.857 main 492 461 __________P___ -1 21.5569 125.857 7 7 341
1910247N21126 1910 36 WP MM NOT_NAMED 1910-09-04 03:00:00 NR 21.8878 125.738 main 461 458 __________P___ -1 21.8878 125.738 7 7 342
1910247N21126 1910 36 WP MM NOT_NAMED 1910-09-04 04:00:00 NR 22.0000 125.700 main 458 442 __________O___ -1 22.0000 125.700 7 7 342
1910247N21126 1910 36 WP MM NOT_NAMED 1910-09-04 06:00:00 NR 22.2271 125.628 main 442 423 __________P___ -1 22.2271 125.628 7 7 345
1910247N21126 1910 36 WP MM NOT_NAMED 1910-09-04 09:00:00 NR 22.5681 125.533 main 423 407 __________P___ -1 22.5681 125.533 7 7 347
1910247N21126 1910 36 WP MM NOT_NAMED 1910-09-04 12:00:00 NR 22.8982 125.458 main 407 384 __________P___ -1 22.8982 125.458 7 7 350
1910247N21126 1910 36 WP MM NOT_NAMED 1910-09-04 15:00:00 NR 23.2051 125.409 main 384 380 __________P___ -1 23.2051 125.409 7 6 352
1910247N21126 1910 36 WP MM NOT_NAMED 1910-09-04 16:00:00 NR 23.3000 125.400 main 380 372 __________O___ -1 23.3000 125.400 3 5 355
1910247N21126 1910 36 WP MM NOT_NAMED 1910-09-04 18:00:00 NR 23.4544 125.386 main 372 366 __________P___ -1 23.4544 125.386 3 4 0
1910247N21126 1910 36 WP MM NOT_NAMED 1910-09-04 21:00:00 NR 23.6605 125.390 main 366 361 __________P___ -1 23.6605 125.390 3 4 4
1910247N21126 1910 36 WP MM NOT_NAMED 1910-09-05 00:00:00 NR 23.8664 125.421 main 361 358 __________P___ -1 23.8664 125.421 3 5 10
1910247N21126 1910 36 WP MM NOT_NAMED 1910-09-05 03:00:00 NR 24.1064 125.477 main 367 364 __________P___ -1 24.1064 125.477 3 5 11
1910247N21126 1910 36 WP MM NOT_NAMED 1910-09-05 04:00:00 NR 24.2000 125.500 main 364 359 __________O___ -1 24.2000 125.500 4 7 10
1910247N21126 1910 36 WP MM NOT_NAMED 1910-09-05 06:00:00 NR 24.4372 125.544 main 359 357 __________P___ -1 24.4372 125.544 4 8 11
1910247N21126 1910 36 WP MM NOT_NAMED 1910-09-05 09:00:00 NR 24.8374 125.629 main 363 362 __________P___ -1 24.8374 125.629 4 8 12
1910247N21126 1910 36 WP MM NOT_NAMED 1910-09-05 12:00:00 NR 25.2602 125.734 main 373 373 __________P___ -1 25.2602 125.734 4 9 14
1910247N21126 1910 36 WP MM NOT_NAMED 1910-09-05 15:00:00 NR 25.6715 125.856 main 399 399 __________P___ -1 25.6715 125.856 4 8 15
1910247N21126 1910 36 WP MM NOT_NAMED 1910-09-05 16:00:00 NR 25.8000 125.900 main 401 401 __________O___ -1 25.8000 125.900 4 8 18
1910247N21126 1910 36 WP MM NOT_NAMED 1910-09-05 18:00:00 NR 26.0391 125.991 main 416 419 __________P___ -1 26.0391 125.991 4 7 21
1910247N21126 1910 36 WP MM NOT_NAMED 1910-09-05 21:00:00 NR 26.3591 126.137 main 439 439 __________P___ -1 26.3591 126.137 4 7 24
1910247N21126 1910 36 WP MM NOT_NAMED 1910-09-06 00:00:00 NR 26.6455 126.290 main 465 469 __________P___ -1 26.6455 126.290 4 6 27
1910247N21126 1910 36 WP MM NOT_NAMED 1910-09-06 03:00:00 NR 26.9127 126.447 main 488 497 __________P___ -1 26.9127 126.447 4 6 27
1910247N21126 1910 36 WP MM NOT_NAMED 1910-09-06 04:00:00 NR 27.0000 126.500 main 501 __________O___ -1 27.0000 126.500 4 6 26

デジタル台風データ・検索

IBTrACS Databaseについて

本データベースは、米国NOAAが公開する1842年以降の世界の熱帯低気圧のベストトラックデータアーカイブInternational Best Track Archive for Climate Stewardship (IBTrACS)を、ウェブで閲覧しやすい形式に変換したものです。

最終更新日:2021-10-21